Covington, Louisiana
Current Conditions -  °F | °C
As of 1:53 PM on Thursday 23 Oct 2014 (Local Time) from KASD Reporting Station
Clear Clear  
Wind Chill: 74°   Ceiling: Unl
Heat Index: 74°   Visibility: 10mi
Dew Point: 44°   Wind: 8mph
Humidity: 34%   Direction: 40°NE
Pressure: 30.06"   Gusts: NA
Location:  30.48°N, 90.09°W
Report Text: KASD 231853Z AUTO 04007KT 10SM CLR 23/07 A3006 RMK AO2 SLP178 T02330067
Loading
Personal Weather Stations






























Interactive Weather Map
Tropical Storm Tracking
New forecast layout! Learn more

10-Day Weather Forecast

Advertisements
Track Severe Weather on mobile